sensor_id;sensor_type;location;lat;lon;timestamp;P1;durP1;ratioP1;P2;durP2;ratioP2
60964;SDS011;46834;51.100;6.886;2022-09-01T00:01:34;1.65;;;1.15;;
60964;SDS011;46834;51.100;6.886;2022-09-01T00:04:06;1.05;;;0.80;;
60964;SDS011;46834;51.100;6.886;2022-09-01T00:06:36;1.60;;;1.02;;
60964;SDS011;46834;51.100;6.886;2022-09-01T00:09:05;1.15;;;1.02;;
60964;SDS011;46834;51.100;6.886;2022-09-01T00:11:39;1.17;;;1.00;;
60964;SDS011;46834;51.100;6.886;2022-09-01T00:14:08;1.40;;;1.05;;
60964;SDS011;46834;51.100;6.886;2022-09-01T00:16:35;1.50;;;1.08;;
60964;SDS011;46834;51.100;6.886;2022-09-01T00:19:02;1.20;;;0.80;;
60964;SDS011;46834;51.100;6.886;2022-09-01T00:21:31;1.50;;;0.95;;
60964;SDS011;46834;51.100;6.886;2022-09-01T00:24:02;1.65;;;0.93;;
60964;SDS011;46834;51.100;6.886;2022-09-01T00:26:30;0.98;;;0.82;;
60964;SDS011;46834;51.100;6.886;2022-09-01T00:28:55;1.90;;;0.90;;
60964;SDS011;46834;51.100;6.886;2022-09-01T00:31:21;1.40;;;0.93;;
60964;SDS011;46834;51.100;6.886;2022-09-01T00:33:48;1.00;;;0.90;;
60964;SDS011;46834;51.100;6.886;2022-09-01T00:36:16;1.83;;;1.13;;
60964;SDS011;46834;51.100;6.886;2022-09-01T00:38:43;3.38;;;0.93;;
60964;SDS011;46834;51.100;6.886;2022-09-01T00:41:10;4.45;;;1.27;;
60964;SDS011;46834;51.100;6.886;2022-09-01T00:43:39;2.58;;;1.00;;
60964;SDS011;46834;51.100;6.886;2022-09-01T00:46:12;0.98;;;0.90;;
60964;SDS011;46834;51.100;6.886;2022-09-01T00:49:00;2.15;;;1.15;;
60964;SDS011;46834;51.100;6.886;2022-09-01T00:51:33;1.40;;;0.90;;
60964;SDS011;46834;51.100;6.886;2022-09-01T00:54:03;1.10;;;0.80;;
60964;SDS011;46834;51.100;6.886;2022-09-01T00:56:33;1.38;;;1.10;;
60964;SDS011;46834;51.100;6.886;2022-09-01T00:59:03;1.17;;;1.00;;
60964;SDS011;46834;51.100;6.886;2022-09-01T01:01:32;1.58;;;1.00;;
60964;SDS011;46834;51.100;6.886;2022-09-01T01:04:02;3.28;;;1.10;;
60964;SDS011;46834;51.100;6.886;2022-09-01T01:06:30;1.90;;;1.20;;
60964;SDS011;46834;51.100;6.886;2022-09-01T01:08:57;1.42;;;1.10;;
60964;SDS011;46834;51.100;6.886;2022-09-01T01:11:26;1.10;;;1.00;;
60964;SDS011;46834;51.100;6.886;2022-09-01T01:16:34;3.05;;;1.40;;
60964;SDS011;46834;51.100;6.886;2022-09-01T01:19:00;1.38;;;1.25;;
60964;SDS011;46834;51.100;6.886;2022-09-01T01:21:29;2.35;;;1.30;;
60964;SDS011;46834;51.100;6.886;2022-09-01T01:24:28;2.25;;;1.05;;
60964;SDS011;46834;51.100;6.886;2022-09-01T01:26:58;2.30;;;1.05;;
60964;SDS011;46834;51.100;6.886;2022-09-01T01:29:26;1.48;;;1.10;;
60964;SDS011;46834;51.100;6.886;2022-09-01T01:31:57;1.67;;;1.00;;
60964;SDS011;46834;51.100;6.886;2022-09-01T01:34:24;2.47;;;1.00;;
60964;SDS011;46834;51.100;6.886;2022-09-01T01:36:50;2.15;;;1.38;;
60964;SDS011;46834;51.100;6.886;2022-09-01T01:39:17;2.05;;;1.10;;
60964;SDS011;46834;51.100;6.886;2022-09-01T01:41:49;1.10;;;1.00;;
60964;SDS011;46834;51.100;6.886;2022-09-01T01:44:19;2.83;;;1.23;;
60964;SDS011;46834;51.100;6.886;2022-09-01T01:46:49;1.45;;;1.25;;
60964;SDS011;46834;51.100;6.886;2022-09-01T01:49:20;1.15;;;1.00;;
60964;SDS011;46834;51.100;6.886;2022-09-01T01:51:50;3.45;;;1.10;;
60964;SDS011;46834;51.100;6.886;2022-09-01T01:54:20;1.00;;;0.88;;
60964;SDS011;46834;51.100;6.886;2022-09-01T01:56:46;1.38;;;0.90;;
60964;SDS011;46834;51.100;6.886;2022-09-01T01:59:13;0.98;;;0.88;;
60964;SDS011;46834;51.100;6.886;2022-09-01T02:01:40;1.38;;;0.93;;
60964;SDS011;46834;51.100;6.886;2022-09-01T02:04:13;1.70;;;1.02;;
60964;SDS011;46834;51.100;6.886;2022-09-01T02:06:41;1.92;;;1.15;;
60964;SDS011;46834;51.100;6.886;2022-09-01T02:09:10;1.27;;;1.10;;
60964;SDS011;46834;51.100;6.886;2022-09-01T02:11:37;1.00;;;0.90;;
60964;SDS011;46834;51.100;6.886;2022-09-01T02:14:04;1.85;;;0.93;;
60964;SDS011;46834;51.100;6.886;2022-09-01T02:16:32;1.52;;;0.80;;
60964;SDS011;46834;51.100;6.886;2022-09-01T02:19:00;1.45;;;0.95;;
60964;SDS011;46834;51.100;6.886;2022-09-01T02:21:31;2.20;;;1.20;;
60964;SDS011;46834;51.100;6.886;2022-09-01T02:23:58;3.35;;;0.90;;
60964;SDS011;46834;51.100;6.886;2022-09-01T02:26:28;4.30;;;0.95;;
60964;SDS011;46834;51.100;6.886;2022-09-01T02:29:07;1.10;;;0.80;;
60964;SDS011;46834;51.100;6.886;2022-09-01T02:31:42;3.28;;;1.00;;
60964;SDS011;46834;51.100;6.886;2022-09-01T02:34:10;1.77;;;1.00;;
60964;SDS011;46834;51.100;6.886;2022-09-01T02:36:38;4.25;;;0.98;;
60964;SDS011;46834;51.100;6.886;2022-09-01T02:39:15;1.52;;;1.02;;
60964;SDS011;46834;51.100;6.886;2022-09-01T02:41:44;1.13;;;1.02;;
60964;SDS011;46834;51.100;6.886;2022-09-01T02:44:10;3.30;;;1.05;;
60964;SDS011;46834;51.100;6.886;2022-09-01T02:46:40;1.75;;;1.08;;
60964;SDS011;46834;51.100;6.886;2022-09-01T02:49:17;2.47;;;1.15;;
60964;SDS011;46834;51.100;6.886;2022-09-01T02:51:49;2.55;;;1.08;;
60964;SDS011;46834;51.100;6.886;2022-09-01T02:54:18;1.83;;;1.00;;
60964;SDS011;46834;51.100;6.886;2022-09-01T02:56:49;1.83;;;0.93;;
60964;SDS011;46834;51.100;6.886;2022-09-01T02:59:18;2.35;;;1.02;;
60964;SDS011;46834;51.100;6.886;2022-09-01T03:01:50;1.55;;;1.00;;
60964;SDS011;46834;51.100;6.886;2022-09-01T03:04:18;3.20;;;1.15;;
60964;SDS011;46834;51.100;6.886;2022-09-01T03:06:46;1.83;;;1.08;;
60964;SDS011;46834;51.100;6.886;2022-09-01T03:09:14;1.65;;;1.00;;
60964;SDS011;46834;51.100;6.886;2022-09-01T03:11:42;2.92;;;1.20;;
60964;SDS011;46834;51.100;6.886;2022-09-01T03:14:13;1.48;;;1.00;;
60964;SDS011;46834;51.100;6.886;2022-09-01T03:16:40;1.02;;;0.93;;
60964;SDS011;46834;51.100;6.886;2022-09-01T03:19:07;1.73;;;0.80;;
60964;SDS011;46834;51.100;6.886;2022-09-01T03:21:36;1.20;;;1.02;;
60964;SDS011;46834;51.100;6.886;2022-09-01T03:24:05;1.42;;;0.90;;
60964;SDS011;46834;51.100;6.886;2022-09-01T03:26:32;2.20;;;0.82;;
60964;SDS011;46834;51.100;6.886;2022-09-01T03:29:00;1.27;;;1.00;;
60964;SDS011;46834;51.100;6.886;2022-09-01T03:31:27;1.20;;;0.90;;
60964;SDS011;46834;51.100;6.886;2022-09-01T03:33:54;1.02;;;0.90;;
60964;SDS011;46834;51.100;6.886;2022-09-01T03:36:21;1.10;;;1.00;;
60964;SDS011;46834;51.100;6.886;2022-09-01T03:38:51;1.08;;;0.95;;
60964;SDS011;46834;51.100;6.886;2022-09-01T03:41:20;1.60;;;1.30;;
60964;SDS011;46834;51.100;6.886;2022-09-01T03:43:50;1.20;;;1.10;;
60964;SDS011;46834;51.100;6.886;2022-09-01T03:46:19;1.33;;;0.98;;
60964;SDS011;46834;51.100;6.886;2022-09-01T03:48:52;1.38;;;1.02;;
60964;SDS011;46834;51.100;6.886;2022-09-01T03:51:22;1.23;;;0.85;;
60964;SDS011;46834;51.100;6.886;2022-09-01T03:53:52;0.77;;;0.77;;
60964;SDS011;46834;51.100;6.886;2022-09-01T03:56:18;1.08;;;0.80;;
60964;SDS011;46834;51.100;6.886;2022-09-01T03:58:48;1.77;;;1.00;;
60964;SDS011;46834;51.100;6.886;2022-09-01T04:01:14;1.25;;;1.08;;
60964;SDS011;46834;51.100;6.886;2022-09-01T04:03:40;1.00;;;0.90;;
60964;SDS011;46834;51.100;6.886;2022-09-01T04:06:11;1.88;;;1.20;;
60964;SDS011;46834;51.100;6.886;2022-09-01T04:08:37;1.63;;;1.00;;
60964;SDS011;46834;51.100;6.886;2022-09-01T04:11:09;1.90;;;1.00;;
60964;SDS011;46834;51.100;6.886;2022-09-01T04:13:41;1.98;;;1.13;;
60964;SDS011;46834;51.100;6.886;2022-09-01T04:16:14;1.60;;;1.05;;
60964;SDS011;46834;51.100;6.886;2022-09-01T04:19:21;1.80;;;0.80;;
60964;SDS011;46834;51.100;6.886;2022-09-01T04:21:57;2.55;;;1.05;;
60964;SDS011;46834;51.100;6.886;2022-09-01T04:24:26;3.42;;;1.05;;
60964;SDS011;46834;51.100;6.886;2022-09-01T04:26:56;1.30;;;0.90;;
60964;SDS011;46834;51.100;6.886;2022-09-01T04:29:26;2.15;;;0.90;;
60964;SDS011;46834;51.100;6.886;2022-09-01T04:31:53;2.80;;;1.00;;
60964;SDS011;46834;51.100;6.886;2022-09-01T04:34:26;2.50;;;1.05;;
60964;SDS011;46834;51.100;6.886;2022-09-01T04:36:54;1.23;;;1.00;;
60964;SDS011;46834;51.100;6.886;2022-09-01T04:39:22;2.38;;;1.15;;
60964;SDS011;46834;51.100;6.886;2022-09-01T04:41:48;1.70;;;1.17;;
60964;SDS011;46834;51.100;6.886;2022-09-01T04:44:14;4.50;;;1.30;;
60964;SDS011;46834;51.100;6.886;2022-09-01T04:46:43;1.48;;;1.08;;
60964;SDS011;46834;51.100;6.886;2022-09-01T04:49:12;1.48;;;1.10;;
60964;SDS011;46834;51.100;6.886;2022-09-01T04:51:44;1.83;;;1.05;;
60964;SDS011;46834;51.100;6.886;2022-09-01T04:54:13;2.30;;;1.15;;
60964;SDS011;46834;51.100;6.886;2022-09-01T04:56:43;1.63;;;1.30;;
60964;SDS011;46834;51.100;6.886;2022-09-01T04:59:15;1.35;;;1.10;;
60964;SDS011;46834;51.100;6.886;2022-09-01T05:01:44;2.08;;;1.20;;
60964;SDS011;46834;51.100;6.886;2022-09-01T05:04:11;1.48;;;1.17;;
60964;SDS011;46834;51.100;6.886;2022-09-01T05:06:49;1.40;;;1.00;;
60964;SDS011;46834;51.100;6.886;2022-09-01T05:09:25;2.42;;;1.00;;
60964;SDS011;46834;51.100;6.886;2022-09-01T05:11:59;3.13;;;1.00;;
60964;SDS011;46834;51.100;6.886;2022-09-01T05:14:35;1.00;;;0.90;;
60964;SDS011;46834;51.100;6.886;2022-09-01T05:17:06;1.83;;;1.10;;
60964;SDS011;46834;51.100;6.886;2022-09-01T05:19:37;4.07;;;1.25;;
60964;SDS011;46834;51.100;6.886;2022-09-01T05:22:07;2.60;;;1.10;;
60964;SDS011;46834;51.100;6.886;2022-09-01T05:24:35;1.10;;;0.90;;
60964;SDS011;46834;51.100;6.886;2022-09-01T05:27:04;1.33;;;1.00;;
60964;SDS011;46834;51.100;6.886;2022-09-01T05:29:32;1.85;;;1.02;;
60964;SDS011;46834;51.100;6.886;2022-09-01T05:32:02;2.35;;;1.10;;
60964;SDS011;46834;51.100;6.886;2022-09-01T05:34:32;1.52;;;0.90;;
60964;SDS011;46834;51.100;6.886;2022-09-01T05:37:01;1.45;;;0.90;;
60964;SDS011;46834;51.100;6.886;2022-09-01T05:39:27;0.90;;;0.90;;
60964;SDS011;46834;51.100;6.886;2022-09-01T05:41:53;1.17;;;0.80;;
60964;SDS011;46834;51.100;6.886;2022-09-01T05:44:20;1.52;;;1.08;;
60964;SDS011;46834;51.100;6.886;2022-09-01T05:46:48;0.80;;;0.75;;
60964;SDS011;46834;51.100;6.886;2022-09-01T05:49:15;1.33;;;0.90;;
60964;SDS011;46834;51.100;6.886;2022-09-01T05:51:43;1.50;;;0.70;;
60964;SDS011;46834;51.100;6.886;2022-09-01T05:54:20;1.42;;;0.85;;
60964;SDS011;46834;51.100;6.886;2022-09-01T05:56:51;1.27;;;0.85;;
60964;SDS011;46834;51.100;6.886;2022-09-01T05:59:18;2.03;;;1.10;;
60964;SDS011;46834;51.100;6.886;2022-09-01T06:01:45;1.90;;;1.10;;
60964;SDS011;46834;51.100;6.886;2022-09-01T06:04:12;4.22;;;1.10;;
60964;SDS011;46834;51.100;6.886;2022-09-01T06:06:39;2.10;;;0.65;;
60964;SDS011;46834;51.100;6.886;2022-09-01T06:09:10;1.83;;;0.90;;
60964;SDS011;46834;51.100;6.886;2022-09-01T06:11:38;1.17;;;0.77;;
60964;SDS011;46834;51.100;6.886;2022-09-01T06:14:05;2.90;;;0.93;;
60964;SDS011;46834;51.100;6.886;2022-09-01T06:16:35;4.47;;;1.00;;
60964;SDS011;46834;51.100;6.886;2022-09-01T06:19:02;2.45;;;0.95;;
60964;SDS011;46834;51.100;6.886;2022-09-01T06:21:28;1.90;;;0.80;;
60964;SDS011;46834;51.100;6.886;2022-09-01T06:23:56;1.80;;;0.93;;
60964;SDS011;46834;51.100;6.886;2022-09-01T06:29:04;0.90;;;0.80;;
60964;SDS011;46834;51.100;6.886;2022-09-01T06:31:34;1.90;;;0.80;;
60964;SDS011;46834;51.100;6.886;2022-09-01T06:34:03;1.13;;;0.82;;
60964;SDS011;46834;51.100;6.886;2022-09-01T06:36:34;1.40;;;0.70;;
60964;SDS011;46834;51.100;6.886;2022-09-01T06:39:04;1.35;;;0.80;;
60964;SDS011;46834;51.100;6.886;2022-09-01T06:41:32;1.08;;;0.82;;
60964;SDS011;46834;51.100;6.886;2022-09-01T06:43:58;1.00;;;0.88;;
60964;SDS011;46834;51.100;6.886;2022-09-01T06:46:25;1.40;;;0.70;;
60964;SDS011;46834;51.100;6.886;2022-09-01T06:48:53;1.20;;;0.70;;
60964;SDS011;46834;51.100;6.886;2022-09-01T06:51:23;1.05;;;0.70;;
60964;SDS011;46834;51.100;6.886;2022-09-01T06:53:52;3.33;;;0.90;;
60964;SDS011;46834;51.100;6.886;2022-09-01T06:56:21;1.27;;;0.80;;
60964;SDS011;46834;51.100;6.886;2022-09-01T06:58:51;0.60;;;0.60;;
60964;SDS011;46834;51.100;6.886;2022-09-01T07:01:18;0.60;;;0.60;;
60964;SDS011;46834;51.100;6.886;2022-09-01T07:03:47;0.65;;;0.60;;
60964;SDS011;46834;51.100;6.886;2022-09-01T07:06:15;1.17;;;0.80;;
60964;SDS011;46834;51.100;6.886;2022-09-01T07:08:43;0.57;;;0.52;;
60964;SDS011;46834;51.100;6.886;2022-09-01T07:11:17;0.93;;;0.52;;
60964;SDS011;46834;51.100;6.886;2022-09-01T07:13:50;1.55;;;0.80;;
60964;SDS011;46834;51.100;6.886;2022-09-01T07:16:18;1.30;;;0.80;;
60964;SDS011;46834;51.100;6.886;2022-09-01T07:18:48;2.50;;;0.50;;
60964;SDS011;46834;51.100;6.886;2022-09-01T07:21:16;0.50;;;0.40;;
60964;SDS011;46834;51.100;6.886;2022-09-01T07:23:43;0.65;;;0.57;;
60964;SDS011;46834;51.100;6.886;2022-09-01T07:26:10;1.95;;;0.88;;
60964;SDS011;46834;51.100;6.886;2022-09-01T07:28:42;2.40;;;0.50;;
60964;SDS011;46834;51.100;6.886;2022-09-01T07:31:15;1.30;;;0.60;;
60964;SDS011;46834;51.100;6.886;2022-09-01T07:33:48;0.52;;;0.40;;
60964;SDS011;46834;51.100;6.886;2022-09-01T07:36:16;1.70;;;1.00;;
60964;SDS011;46834;51.100;6.886;2022-09-01T07:38:43;1.00;;;0.77;;
60964;SDS011;46834;51.100;6.886;2022-09-01T07:41:10;2.08;;;0.65;;
60964;SDS011;46834;51.100;6.886;2022-09-01T07:43:37;0.77;;;0.60;;
60964;SDS011;46834;51.100;6.886;2022-09-01T07:46:04;0.60;;;0.55;;
60964;SDS011;46834;51.100;6.886;2022-09-01T07:48:30;0.45;;;0.40;;
60964;SDS011;46834;51.100;6.886;2022-09-01T07:50:56;0.60;;;0.50;;
60964;SDS011;46834;51.100;6.886;2022-09-01T07:55:55;0.95;;;0.60;;
60964;SDS011;46834;51.100;6.886;2022-09-01T07:58:25;0.68;;;0.68;;
60964;SDS011;46834;51.100;6.886;2022-09-01T08:00:54;1.00;;;0.73;;
60964;SDS011;46834;51.100;6.886;2022-09-01T08:03:22;1.75;;;0.68;;
60964;SDS011;46834;51.100;6.886;2022-09-01T08:05:49;0.82;;;0.70;;
60964;SDS011;46834;51.100;6.886;2022-09-01T08:08:21;2.22;;;0.95;;
60964;SDS011;46834;51.100;6.886;2022-09-01T08:10:48;2.33;;;0.73;;
60964;SDS011;46834;51.100;6.886;2022-09-01T08:13:14;0.80;;;0.60;;
60964;SDS011;46834;51.100;6.886;2022-09-01T08:15:41;2.15;;;1.30;;
60964;SDS011;46834;51.100;6.886;2022-09-01T08:18:07;2.03;;;0.80;;
60964;SDS011;46834;51.100;6.886;2022-09-01T08:20:36;2.25;;;0.82;;
60964;SDS011;46834;51.100;6.886;2022-09-01T08:23:09;1.13;;;0.80;;
60964;SDS011;46834;51.100;6.886;2022-09-01T08:25:37;0.80;;;0.50;;
60964;SDS011;46834;51.100;6.886;2022-09-01T08:28:06;1.25;;;0.63;;
60964;SDS011;46834;51.100;6.886;2022-09-01T08:30:32;1.17;;;0.90;;
60964;SDS011;46834;51.100;6.886;2022-09-01T08:32:59;0.70;;;0.60;;
60964;SDS011;46834;51.100;6.886;2022-09-01T08:35:26;0.88;;;0.40;;
60964;SDS011;46834;51.100;6.886;2022-09-01T08:37:53;0.50;;;0.50;;
60964;SDS011;46834;51.100;6.886;2022-09-01T08:40:20;0.73;;;0.60;;
60964;SDS011;46834;51.100;6.886;2022-09-01T08:43:06;0.70;;;0.60;;
60964;SDS011;46834;51.100;6.886;2022-09-01T08:45:53;0.95;;;0.50;;
60964;SDS011;46834;51.100;6.886;2022-09-01T08:48:41;0.70;;;0.60;;
60964;SDS011;46834;51.100;6.886;2022-09-01T08:54:16;0.60;;;0.60;;
60964;SDS011;46834;51.100;6.886;2022-09-01T08:57:04;2.05;;;0.60;;
60964;SDS011;46834;51.100;6.886;2022-09-01T08:59:40;1.00;;;0.50;;
60964;SDS011;46834;51.100;6.886;2022-09-01T09:14:07;1.43;;;0.70;;
60964;SDS011;46834;51.100;6.886;2022-09-01T09:16:57;0.47;;;0.47;;
60964;SDS011;46834;51.100;6.886;2022-09-01T09:21:59;2.22;;;1.95;;
60964;SDS011;46834;51.100;6.886;2022-09-01T09:24:33;3.00;;;1.67;;
60964;SDS011;46834;51.100;6.886;2022-09-01T09:27:29;1.00;;;0.90;;
60964;SDS011;46834;51.100;6.886;2022-09-01T09:29:59;2.05;;;0.85;;
60964;SDS011;46834;51.100;6.886;2022-09-01T09:32:49;0.65;;;0.65;;
60964;SDS011;46834;51.100;6.886;2022-09-01T09:35:29;0.60;;;0.60;;
60964;SDS011;46834;51.100;6.886;2022-09-01T09:43:36;0.60;;;0.60;;
60964;SDS011;46834;51.100;6.886;2022-09-01T09:46:19;1.65;;;0.63;;
60964;SDS011;46834;51.100;6.886;2022-09-01T09:49:18;1.60;;;0.60;;
60964;SDS011;46834;51.100;6.886;2022-09-01T09:51:56;0.52;;;0.52;;
60964;SDS011;46834;51.100;6.886;2022-09-01T09:57:58;0.73;;;0.43;;
60964;SDS011;46834;51.100;6.886;2022-09-01T10:00:33;0.60;;;0.50;;
60964;SDS011;46834;51.100;6.886;2022-09-01T10:05:45;1.05;;;0.70;;
60964;SDS011;46834;51.100;6.886;2022-09-01T10:11:01;0.75;;;0.55;;
60964;SDS011;46834;51.100;6.886;2022-09-01T10:13:29;0.85;;;0.65;;
60964;SDS011;46834;51.100;6.886;2022-09-01T10:16:17;0.63;;;0.47;;
60964;SDS011;46834;51.100;6.886;2022-09-01T10:18:52;3.38;;;0.70;;
60964;SDS011;46834;51.100;6.886;2022-09-01T10:21:25;1.27;;;0.60;;
60964;SDS011;46834;51.100;6.886;2022-09-01T10:23:59;2.38;;;0.60;;
60964;SDS011;46834;51.100;6.886;2022-09-01T10:26:44;0.57;;;0.50;;
60964;SDS011;46834;51.100;6.886;2022-09-01T10:29:20;1.50;;;0.60;;
60964;SDS011;46834;51.100;6.886;2022-09-01T10:32:18;1.70;;;0.70;;
60964;SDS011;46834;51.100;6.886;2022-09-01T10:34:57;4.13;;;0.63;;
60964;SDS011;46834;51.100;6.886;2022-09-01T10:37:25;0.38;;;0.38;;
60964;SDS011;46834;51.100;6.886;2022-09-01T10:46:45;0.90;;;0.57;;
60964;SDS011;46834;51.100;6.886;2022-09-01T10:48:47;1.08;;;0.70;;
60964;SDS011;46834;51.100;6.886;2022-09-01T10:53:44;1.13;;;0.70;;
60964;SDS011;46834;51.100;6.886;2022-09-01T11:06:51;0.60;;;0.60;;
60964;SDS011;46834;51.100;6.886;2022-09-01T11:17:22;2.03;;;0.73;;
60964;SDS011;46834;51.100;6.886;2022-09-01T11:20:23;0.85;;;0.70;;
60964;SDS011;46834;51.100;6.886;2022-09-01T11:22:59;2.10;;;0.50;;
60964;SDS011;46834;51.100;6.886;2022-09-01T11:30:53;1.40;;;0.80;;
60964;SDS011;46834;51.100;6.886;2022-09-01T11:33:37;0.70;;;0.68;;
60964;SDS011;46834;51.100;6.886;2022-09-01T11:44:45;1.88;;;0.73;;
60964;SDS011;46834;51.100;6.886;2022-09-01T11:47:20;0.55;;;0.50;;
60964;SDS011;46834;51.100;6.886;2022-09-01T11:50:29;1.15;;;0.60;;
60964;SDS011;46834;51.100;6.886;2022-09-01T11:53:01;1.13;;;0.80;;
60964;SDS011;46834;51.100;6.886;2022-09-01T11:55:50;0.90;;;0.70;;
60964;SDS011;46834;51.100;6.886;2022-09-01T12:01:15;0.70;;;0.50;;
60964;SDS011;46834;51.100;6.886;2022-09-01T12:03:43;1.02;;;0.80;;
60964;SDS011;46834;51.100;6.886;2022-09-01T12:06:17;3.38;;;0.80;;
60964;SDS011;46834;51.100;6.886;2022-09-01T12:08:55;1.25;;;0.70;;
60964;SDS011;46834;51.100;6.886;2022-09-01T12:11:29;1.17;;;0.60;;
60964;SDS011;46834;51.100;6.886;2022-09-01T12:14:00;0.80;;;0.75;;
60964;SDS011;46834;51.100;6.886;2022-09-01T12:16:33;1.08;;;0.80;;
60964;SDS011;46834;51.100;6.886;2022-09-01T12:19:04;1.05;;;0.60;;
60964;SDS011;46834;51.100;6.886;2022-09-01T12:21:35;1.67;;;0.70;;
60964;SDS011;46834;51.100;6.886;2022-09-01T12:26:39;1.83;;;0.80;;
60964;SDS011;46834;51.100;6.886;2022-09-01T12:29:06;1.52;;;0.65;;
60964;SDS011;46834;51.100;6.886;2022-09-01T12:31:33;0.95;;;0.80;;
60964;SDS011;46834;51.100;6.886;2022-09-01T12:33:59;0.85;;;0.68;;
60964;SDS011;46834;51.100;6.886;2022-09-01T12:36:34;1.00;;;0.70;;
60964;SDS011;46834;51.100;6.886;2022-09-01T12:41:42;0.63;;;0.50;;
60964;SDS011;46834;51.100;6.886;2022-09-01T12:44:29;2.28;;;0.80;;
60964;SDS011;46834;51.100;6.886;2022-09-01T12:49:57;0.90;;;0.70;;
60964;SDS011;46834;51.100;6.886;2022-09-01T12:52:56;1.10;;;0.70;;
60964;SDS011;46834;51.100;6.886;2022-09-01T12:55:27;0.80;;;0.70;;
60964;SDS011;46834;51.100;6.886;2022-09-01T12:57:55;0.90;;;0.70;;
60964;SDS011;46834;51.100;6.886;2022-09-01T13:00:27;1.27;;;0.80;;
60964;SDS011;46834;51.100;6.886;2022-09-01T13:03:13;0.73;;;0.65;;
60964;SDS011;46834;51.100;6.886;2022-09-01T13:05:42;1.27;;;0.90;;
60964;SDS011;46834;51.100;6.886;2022-09-01T13:08:18;1.27;;;0.80;;
60964;SDS011;46834;51.100;6.886;2022-09-01T13:10:57;0.93;;;0.60;;
60964;SDS011;46834;51.100;6.886;2022-09-01T13:13:28;0.68;;;0.68;;
60964;SDS011;46834;51.100;6.886;2022-09-01T13:15:55;1.55;;;1.00;;
60964;SDS011;46834;51.100;6.886;2022-09-01T13:18:28;1.27;;;1.17;;
60964;SDS011;46834;51.100;6.886;2022-09-01T13:20:55;1.77;;;0.90;;
60964;SDS011;46834;51.100;6.886;2022-09-01T13:23:22;1.08;;;0.98;;
60964;SDS011;46834;51.100;6.886;2022-09-01T13:25:48;1.30;;;0.80;;
60964;SDS011;46834;51.100;6.886;2022-09-01T13:28:15;0.85;;;0.82;;
60964;SDS011;46834;51.100;6.886;2022-09-01T13:30:42;1.30;;;0.90;;
60964;SDS011;46834;51.100;6.886;2022-09-01T13:33:17;0.95;;;0.80;;
60964;SDS011;46834;51.100;6.886;2022-09-01T13:35:42;1.25;;;0.80;;
60964;SDS011;46834;51.100;6.886;2022-09-01T13:38:08;1.17;;;0.82;;
60964;SDS011;46834;51.100;6.886;2022-09-01T13:40:34;1.00;;;0.88;;
60964;SDS011;46834;51.100;6.886;2022-09-01T13:43:00;0.90;;;0.80;;
60964;SDS011;46834;51.100;6.886;2022-09-01T13:45:25;0.88;;;0.80;;
60964;SDS011;46834;51.100;6.886;2022-09-01T13:47:52;1.88;;;0.88;;
60964;SDS011;46834;51.100;6.886;2022-09-01T13:50:19;1.35;;;0.70;;
60964;SDS011;46834;51.100;6.886;2022-09-01T13:52:49;1.00;;;0.90;;
60964;SDS011;46834;51.100;6.886;2022-09-01T13:55:20;1.52;;;0.70;;
60964;SDS011;46834;51.100;6.886;2022-09-01T13:57:50;0.80;;;0.80;;
60964;SDS011;46834;51.100;6.886;2022-09-01T14:00:18;0.90;;;0.70;;
60964;SDS011;46834;51.100;6.886;2022-09-01T14:02:49;1.27;;;0.90;;
60964;SDS011;46834;51.100;6.886;2022-09-01T14:05:21;1.60;;;0.90;;
60964;SDS011;46834;51.100;6.886;2022-09-01T14:07:51;5.03;;;1.17;;
60964;SDS011;46834;51.100;6.886;2022-09-01T14:10:17;1.23;;;0.90;;
60964;SDS011;46834;51.100;6.886;2022-09-01T14:12:45;1.55;;;1.27;;
60964;SDS011;46834;51.100;6.886;2022-09-01T14:15:12;1.42;;;1.10;;
60964;SDS011;46834;51.100;6.886;2022-09-01T14:17:41;1.73;;;1.02;;
60964;SDS011;46834;51.100;6.886;2022-09-01T14:20:12;0.93;;;0.90;;
60964;SDS011;46834;51.100;6.886;2022-09-01T14:22:43;1.23;;;1.13;;
60964;SDS011;46834;51.100;6.886;2022-09-01T14:25:10;1.33;;;0.90;;
60964;SDS011;46834;51.100;6.886;2022-09-01T14:27:36;2.00;;;1.00;;
60964;SDS011;46834;51.100;6.886;2022-09-01T14:30:05;1.13;;;1.02;;
60964;SDS011;46834;51.100;6.886;2022-09-01T14:32:35;0.88;;;0.80;;
60964;SDS011;46834;51.100;6.886;2022-09-01T14:35:00;1.35;;;0.80;;
60964;SDS011;46834;51.100;6.886;2022-09-01T14:37:27;1.05;;;0.98;;
60964;SDS011;46834;51.100;6.886;2022-09-01T14:39:54;0.80;;;0.80;;
60964;SDS011;46834;51.100;6.886;2022-09-01T14:42:22;1.90;;;0.82;;
60964;SDS011;46834;51.100;6.886;2022-09-01T14:44:49;1.70;;;0.85;;
60964;SDS011;46834;51.100;6.886;2022-09-01T14:47:16;1.05;;;0.85;;
60964;SDS011;46834;51.100;6.886;2022-09-01T14:49:42;1.23;;;0.90;;
60964;SDS011;46834;51.100;6.886;2022-09-01T14:52:08;1.20;;;1.00;;
60964;SDS011;46834;51.100;6.886;2022-09-01T14:54:38;0.70;;;0.70;;
60964;SDS011;46834;51.100;6.886;2022-09-01T14:57:08;1.63;;;1.10;;
60964;SDS011;46834;51.100;6.886;2022-09-01T14:59:35;1.08;;;1.00;;
60964;SDS011;46834;51.100;6.886;2022-09-01T15:02:02;3.65;;;1.00;;
60964;SDS011;46834;51.100;6.886;2022-09-01T15:04:29;1.48;;;1.00;;
60964;SDS011;46834;51.100;6.886;2022-09-01T15:06:55;1.10;;;1.00;;
60964;SDS011;46834;51.100;6.886;2022-09-01T15:09:21;3.28;;;1.20;;
60964;SDS011;46834;51.100;6.886;2022-09-01T15:11:46;0.90;;;0.80;;
60964;SDS011;46834;51.100;6.886;2022-09-01T15:14:12;1.10;;;0.90;;
60964;SDS011;46834;51.100;6.886;2022-09-01T15:16:38;1.10;;;1.00;;
60964;SDS011;46834;51.100;6.886;2022-09-01T15:19:09;1.25;;;0.88;;
60964;SDS011;46834;51.100;6.886;2022-09-01T15:21:37;1.75;;;0.90;;
60964;SDS011;46834;51.100;6.886;2022-09-01T15:24:07;1.08;;;0.90;;
60964;SDS011;46834;51.100;6.886;2022-09-01T15:26:34;1.20;;;1.10;;
60964;SDS011;46834;51.100;6.886;2022-09-01T15:29:02;1.23;;;1.08;;
60964;SDS011;46834;51.100;6.886;2022-09-01T15:31:28;1.40;;;0.90;;
60964;SDS011;46834;51.100;6.886;2022-09-01T15:33:57;1.42;;;1.15;;
60964;SDS011;46834;51.100;6.886;2022-09-01T15:36:27;1.20;;;1.00;;
60964;SDS011;46834;51.100;6.886;2022-09-01T15:38:55;0.77;;;0.77;;
60964;SDS011;46834;51.100;6.886;2022-09-01T15:41:23;1.55;;;1.00;;
60964;SDS011;46834;51.100;6.886;2022-09-01T15:43:52;1.40;;;1.00;;
60964;SDS011;46834;51.100;6.886;2022-09-01T15:46:20;1.27;;;0.98;;
60964;SDS011;46834;51.100;6.886;2022-09-01T15:48:46;1.00;;;0.80;;
60964;SDS011;46834;51.100;6.886;2022-09-01T15:53:47;1.52;;;1.00;;
60964;SDS011;46834;51.100;6.886;2022-09-01T15:56:16;1.13;;;1.02;;
60964;SDS011;46834;51.100;6.886;2022-09-01T15:58:43;1.00;;;0.90;;
60964;SDS011;46834;51.100;6.886;2022-09-01T16:01:13;0.88;;;0.88;;
60964;SDS011;46834;51.100;6.886;2022-09-01T16:03:40;0.70;;;0.70;;
60964;SDS011;46834;51.100;6.886;2022-09-01T16:06:06;2.92;;;0.98;;
60964;SDS011;46834;51.100;6.886;2022-09-01T16:08:33;1.02;;;0.90;;
60964;SDS011;46834;51.100;6.886;2022-09-01T16:11:00;1.80;;;0.80;;
60964;SDS011;46834;51.100;6.886;2022-09-01T16:13:33;2.78;;;2.20;;
60964;SDS011;46834;51.100;6.886;2022-09-01T16:16:12;2.15;;;1.83;;
60964;SDS011;46834;51.100;6.886;2022-09-01T16:21:53;3.13;;;1.30;;
60964;SDS011;46834;51.100;6.886;2022-09-01T16:24:48;1.20;;;0.98;;
60964;SDS011;46834;51.100;6.886;2022-09-01T16:27:20;1.10;;;0.90;;
60964;SDS011;46834;51.100;6.886;2022-09-01T16:29:57;1.05;;;0.80;;
60964;SDS011;46834;51.100;6.886;2022-09-01T16:32:29;2.20;;;0.90;;
60964;SDS011;46834;51.100;6.886;2022-09-01T16:34:57;1.10;;;0.98;;
60964;SDS011;46834;51.100;6.886;2022-09-01T16:42:52;1.10;;;0.90;;
60964;SDS011;46834;51.100;6.886;2022-09-01T16:51:24;0.80;;;0.80;;
60964;SDS011;46834;51.100;6.886;2022-09-01T16:54:05;2.40;;;0.88;;
60964;SDS011;46834;51.100;6.886;2022-09-01T16:59:59;1.13;;;0.90;;
60964;SDS011;46834;51.100;6.886;2022-09-01T17:06:05;1.38;;;1.00;;